Time;durP1;ratioP1;P1;durP2;ratioP2;P2;SDS_P1;SDS_P2;PMS_P1;PMS_P2;Temp;Humidity;BMP_temperature;BMP_pressure;BME280_temperature;BME280_humidity;BME280_pressure;Samples;Min_cycle;Max_cycle;Signal;HPM_P1;HPM_P2
2023/07/10 00:01:16;;;;;;;6.20;3.17;;;22.60;99.90;;;;;;4991492;28;20037;-80
2023/07/10 00:03:42;;;;;;;10.73;3.05;;;;;;;;;;4991122;28;20037;-79
2023/07/10 00:06:11;;;;;;;7.88;3.58;;;22.60;99.90;;;;;;4991390;28;20030;-79
2023/07/10 00:08:37;;;;;;;3.97;2.75;;;;;;;;;;4991216;28;20050;-80
2023/07/10 00:11:03;;;;;;;8.02;5.22;;;;;;;;;;4990237;28;20026;-80
2023/07/10 00:13:30;;;;;;;6.28;2.83;;;22.40;99.90;;;;;;4991467;28;20034;-80
2023/07/10 00:15:56;;;;;;;7.70;3.58;;;;;;;;;;4991190;28;20387;-80
2023/07/10 00:18:23;;;;;;;5.05;2.83;;;22.40;99.90;;;;;;4988897;28;20023;-80
2023/07/10 00:20:49;;;;;;;6.57;2.47;;;;;;;;;;4984655;28;20105;-80
2023/07/10 00:23:16;;;;;;;6.28;2.65;;;22.40;99.90;;;;;;4987723;28;20026;-80
2023/07/10 00:25:42;;;;;;;4.07;2.53;;;;;;;;;;4989603;28;20491;-79
2023/07/10 00:28:19;;;;;;;6.32;2.58;;;22.20;99.90;;;;;;4989732;28;20507;-80
2023/07/10 00:30:46;;;;;;;8.15;2.95;;;;;;;;;;4996207;28;20037;-79
2023/07/10 00:33:12;;;;;;;2.95;2.40;;;;;;;;;;4990464;28;20049;-80
2023/07/10 00:35:38;;;;;;;4.90;2.63;;;;;;;;;;4999313;28;20120;-79
2023/07/10 00:38:15;;;;;;;6.90;2.85;;;22.10;99.90;;;;;;4991026;28;20026;-80
2023/07/10 00:40:45;;;;;;;6.03;2.95;;;;;;;;;;4990906;28;20479;-79
2023/07/10 00:43:24;;;;;;;7.07;2.88;;;20.60;99.90;;;;;;4990556;28;20030;-79
2023/07/10 00:45:51;;;;;;;8.15;3.95;;;22.10;99.90;;;;;;4990400;28;20442;-79
2023/07/10 00:48:17;;;;;;;9.40;2.45;;;;;;;;;;4988756;28;20100;-80
2023/07/10 00:50:48;;;;;;;6.45;2.17;;;22.00;99.90;;;;;;4989881;28;20065;-79
2023/07/10 00:53:25;;;;;;;5.10;2.83;;;22.10;99.90;;;;;;4990355;28;20042;-79
2023/07/10 00:55:54;;;;;;;6.53;2.95;;;22.10;99.90;;;;;;4986701;28;20069;-79
2023/07/10 00:58:50;;;;;;;4.05;2.65;;;22.10;99.90;;;;;;4989096;28;20026;-80
2023/07/10 01:01:22;;;;;;;9.82;3.45;;;22.00;99.90;;;;;;4997339;28;20035;-79
2023/07/10 01:03:51;;;;;;;5.88;3.42;;;22.00;99.90;;;;;;4988931;28;20050;-80
2023/07/10 01:06:29;;;;;;;6.03;3.20;;;22.00;99.90;;;;;;4990162;28;20030;-80
2023/07/10 01:09:00;;;;;;;9.80;2.50;;;22.00;99.90;;;;;;4987337;28;20034;-79
2023/07/10 01:11:26;;;;;;;4.85;2.63;;;22.00;99.90;;;;;;4979343;28;20034;-79
2023/07/10 01:13:56;;;;;;;7.50;2.67;;;22.00;99.90;;;;;;4988449;28;20068;-80
2023/07/10 01:16:23;;;;;;;4.72;2.08;;;22.00;99.90;;;;;;4990081;28;20030;-80
2023/07/10 01:18:49;;;;;;;7.75;2.85;;;;;;;;;;4989512;28;20442;-79
2023/07/10 01:21:24;;;;;;;9.60;2.53;;;;;;;;;;4990544;28;20046;-79
2023/07/10 01:23:50;;;;;;;4.65;2.55;;;;;;;;;;4979897;28;20553;-80
2023/07/10 01:26:16;;;;;;;4.45;2.67;;;;;;;;;;4990292;28;20045;-79
2023/07/10 01:28:43;;;;;;;4.88;2.65;;;;;;;;;;4989298;28;20030;-80
2023/07/10 01:31:12;;;;;;;5.47;2.23;;;;;;;;;;4988403;28;20035;-80
2023/07/10 01:33:43;;;;;;;8.93;2.30;;;21.80;99.90;;;;;;4989034;28;20125;-80
2023/07/10 01:36:12;;;;;;;8.70;2.88;;;21.80;99.90;;;;;;4988017;28;20061;-80
2023/07/10 01:38:43;;;;;;;7.18;2.47;;;21.90;99.90;;;;;;4989803;28;20034;-80
2023/07/10 01:41:21;;;;;;;7.00;2.72;;;;;;;;;;4989445;28;20027;-80
2023/07/10 01:43:47;;;;;;;4.75;2.35;;;;;;;;;;4986445;28;20027;-79
2023/07/10 01:46:22;;;;;;;5.75;2.75;;;21.70;99.90;;;;;;4989732;28;20419;-80
2023/07/10 01:48:51;;;;;;;5.03;2.90;;;21.80;99.90;;;;;;4989751;28;20031;-80
2023/07/10 01:51:17;;;;;;;7.68;2.50;;;;;;;;;;4990009;28;20061;-79
2023/07/10 01:53:45;;;;;;;6.38;2.60;;;21.60;99.90;;;;;;4989035;28;20030;-80
2023/07/10 01:56:11;;;;;;;5.85;2.97;;;;;;;;;;4989592;28;20534;-79
2023/07/10 01:58:37;;;;;;;4.93;2.50;;;;;;;;;;4988842;28;20026;-80
2023/07/10 02:01:03;;;;;;;6.45;2.70;;;;;;;;;;4989350;28;20033;-80
2023/07/10 02:03:29;;;;;;;6.05;2.92;;;;;;;;;;4987431;28;20150;-80
2023/07/10 02:05:55;;;;;;;7.32;3.47;;;;;;;;;;4989138;28;20034;-80
2023/07/10 02:08:21;;;;;;;8.43;3.28;;;;;;;;;;4989133;28;20015;-80
2023/07/10 02:10:47;;;;;;;5.50;2.78;;;;;;;;;;4989365;28;20033;-80
2023/07/10 02:13:13;;;;;;;5.82;2.65;;;;;;;;;;4988185;28;20109;-80
2023/07/10 02:15:39;;;;;;;12.00;5.60;;;;;;;;;;4988253;28;20030;-80
2023/07/10 02:18:05;;;;;;;4.43;2.42;;;;;;;;;;4988791;28;20395;-80
2023/07/10 02:20:31;;;;;;;5.50;2.70;;;;;;;;;;4989561;28;20041;-80
2023/07/10 02:22:57;;;;;;;11.02;3.80;;;;;;;;;;4986991;28;20034;-80
2023/07/10 02:25:23;;;;;;;4.82;2.50;;;;;;;;;;4992135;28;20022;-79
2023/07/10 02:27:50;;;;;;;3.63;2.33;;;;;;;;;;4988510;28;20022;-80
2023/07/10 02:30:17;;;;;;;5.97;3.00;;;;;;;;;;4989471;28;20034;-80
2023/07/10 02:32:43;;;;;;;4.15;2.75;;;;;;;;;;4988477;28;20311;-80
2023/07/10 02:35:09;;;;;;;4.90;2.25;;;;;;;;;;4991328;28;20374;-79
2023/07/10 02:37:35;;;;;;;5.15;2.38;;;;;;;;;;4991887;28;20018;-80
2023/07/10 02:40:01;;;;;;;4.95;2.47;;;;;;;;;;4991775;28;20038;-83
2023/07/10 02:42:27;;;;;;;4.43;2.72;;;;;;;;;;4992815;28;20069;-82
2023/07/10 02:44:53;;;;;;;4.13;2.63;;;;;;;;;;4993343;28;20081;-82
2023/07/10 02:47:19;;;;;;;7.97;2.95;;;;;;;;;;4992970;28;20023;-82
2023/07/10 02:49:45;;;;;;;3.47;2.35;;;;;;;;;;4993328;28;20026;-82
2023/07/10 02:52:11;;;;;;;5.45;2.70;;;;;;;;;;4992562;28;20538;-82
2023/07/10 02:54:37;;;;;;;3.53;2.08;;;;;;;;;;4993152;28;20031;-83
2023/07/10 02:57:03;;;;;;;9.02;2.78;;;;;;;;;;4992585;28;20056;-82
2023/07/10 02:59:29;;;;;;;5.07;3.00;;;;;;;;;;4992940;28;20034;-82
2023/07/10 03:01:55;;;;;;;6.32;2.95;;;;;;;;;;4994548;28;20571;-83
2023/07/10 03:04:21;;;;;;;4.32;1.98;;;;;;;;;;4990496;28;20084;-82
2023/07/10 03:06:48;;;;;;;7.88;2.63;;;21.90;99.90;;;;;;4992757;28;20034;-83
2023/07/10 03:09:14;;;;;;;4.35;2.72;;;;;;;;;;4997195;28;20034;-82
2023/07/10 03:11:40;;;;;;;3.63;2.15;;;;;;;;;;4992149;28;20133;-82
2023/07/10 03:14:06;;;;;;;6.55;3.47;;;;;;;;;;4993015;28;20114;-82
2023/07/10 03:16:32;;;;;;;3.70;2.55;;;;;;;;;;4990867;28;20125;-82
2023/07/10 03:18:58;;;;;;;4.65;3.10;;;;;;;;;;4992833;28;20019;-83
2023/07/10 03:21:25;;;;;;;5.72;2.47;;;;;;;;;;4987436;28;20081;-82
2023/07/10 03:23:51;;;;;;;6.70;2.65;;;;;;;;;;4992181;28;20499;-81
2023/07/10 03:26:17;;;;;;;2.83;1.83;;;;;;;;;;4992490;28;20113;-82
2023/07/10 03:28:43;;;;;;;5.00;2.72;;;;;;;;;;4992158;28;20073;-83
2023/07/10 03:31:09;;;;;;;3.50;2.40;;;;;;;;;;4991935;28;20042;-82
2023/07/10 03:33:36;;;;;;;6.57;3.17;;;;;;;;;;4991718;28;20041;-82
2023/07/10 03:36:05;;;;;;;3.55;2.72;;;21.50;99.90;;;;;;4992094;28;20504;-82
2023/07/10 03:38:31;;;;;;;8.23;2.75;;;;;;;;;;4992101;28;20037;-81
2023/07/10 03:40:58;;;;;;;7.78;2.47;;;21.20;99.90;;;;;;4991856;28;20018;-82
2023/07/10 03:43:25;;;;;;;9.40;3.43;;;21.20;99.90;;;;;;4991979;28;20027;-82
2023/07/10 03:45:51;;;;;;;5.95;2.95;;;;;;;;;;4990695;28;20038;-82
2023/07/10 03:48:17;;;;;;;8.48;2.85;;;;;;;;;;4992003;28;20022;-82
2023/07/10 03:50:43;;;;;;;7.10;3.08;;;;;;;;;;4991957;28;20034;-82
2023/07/10 03:53:09;;;;;;;3.67;2.45;;;;;;;;;;4992482;28;20049;-82
2023/07/10 03:55:35;;;;;;;8.80;2.70;;;;;;;;;;4990106;28;20117;-83
2023/07/10 03:58:01;;;;;;;5.15;2.63;;;;;;;;;;4992249;28;20120;-82
2023/07/10 04:00:27;;;;;;;6.07;3.72;;;;;;;;;;4991619;28;20027;-82
2023/07/10 04:02:53;;;;;;;4.85;2.72;;;;;;;;;;4991932;28;20026;-82
2023/07/10 04:05:19;;;;;;;3.70;2.33;;;;;;;;;;4990549;28;20403;-82
2023/07/10 04:07:45;;;;;;;4.22;2.75;;;;;;;;;;4991941;28;20120;-83
2023/07/10 04:10:11;;;;;;;3.83;2.55;;;;;;;;;;4991312;28;20041;-82
2023/07/10 04:12:40;;;;;;;9.35;2.30;;;21.40;99.90;;;;;;4991909;28;20779;-82
2023/07/10 04:15:07;;;;;;;7.85;2.90;;;;;;;;;;4991428;28;20516;-82
2023/07/10 04:17:33;;;;;;;4.25;2.67;;;;;;;;;;5003536;28;20084;-82
2023/07/10 04:19:59;;;;;;;7.32;3.13;;;;;;;;;;4997236;28;20386;-82
2023/07/10 04:22:24;;;;;;;7.45;2.53;;;;;;;;;;4998446;28;20030;-82
2023/07/10 04:24:50;;;;;;;8.98;3.22;;;;;;;;;;4996177;28;20113;-81
2023/07/10 04:27:16;;;;;;;5.30;3.08;;;;;;;;;;4995870;28;20037;-82
2023/07/10 04:29:42;;;;;;;10.00;4.35;;;;;;;;;;4990693;28;20398;-82
2023/07/10 04:32:09;;;;;;;6.00;2.53;;;;;;;;;;4991382;28;20042;-82
2023/07/10 04:34:35;;;;;;;8.80;2.92;;;;;;;;;;4990625;28;20081;-82
2023/07/10 04:37:01;;;;;;;5.45;2.88;;;21.90;99.90;;;;;;4991305;28;20081;-82
2023/07/10 04:39:27;;;;;;;7.68;2.80;;;;;;;;;;4989372;28;20475;-82
2023/07/10 04:41:53;;;;;;;3.05;2.47;;;;;;;;;;4990962;28;20062;-82
2023/07/10 04:44:19;;;;;;;4.85;2.58;;;;;;;;;;4990808;28;20447;-82
2023/07/10 04:46:45;;;;;;;4.65;3.15;;;;;;;;;;4991248;28;20030;-83
2023/07/10 04:49:11;;;;;;;8.98;2.97;;;;;;;;;;4984425;28;20480;-82
2023/07/10 04:51:37;;;;;;;3.85;3.03;;;;;;;;;;4984056;28;20030;-82
2023/07/10 04:54:03;;;;;;;4.85;2.88;;;;;;;;;;4990533;28;20048;-82
2023/07/10 04:56:29;;;;;;;8.93;2.88;;;;;;;;;;4990808;28;20026;-82
2023/07/10 04:58:57;;;;;;;8.13;2.25;;;22.50;99.90;;;;;;4990535;28;20032;-82
2023/07/10 05:01:25;;;;;;;3.25;2.13;;;22.40;99.90;;;;;;4990655;28;20097;-82
2023/07/10 05:03:51;;;;;;;10.23;2.95;;;;;;;;;;4998885;28;20120;-82
2023/07/10 05:06:17;;;;;;;9.13;2.38;;;;;;;;;;4990492;28;20487;-81
2023/07/10 05:08:43;;;;;;;6.90;2.78;;;;;;;;;;4990265;28;20685;-82
2023/07/10 05:11:09;;;;;;;7.53;3.83;;;;;;;;;;4990098;28;20122;-80
2023/07/10 05:13:36;;;;;;;5.50;3.28;;;;;;;;;;4985671;28;20030;-79
2023/07/10 05:16:02;;;;;;;6.05;2.63;;;;;;;;;;4988988;28;20042;-79
2023/07/10 05:18:29;;;;;;;7.53;3.03;;;;;;;;;;4985309;28;20029;-79
2023/07/10 05:20:56;;;;;;;3.42;2.65;;;;;;;;;;4989041;28;20652;-79
2023/07/10 05:23:22;;;;;;;4.60;2.55;;;;;;;;;;4980436;28;20074;-78
2023/07/10 05:26:10;;;;;;;6.32;2.53;;;23.30;99.90;;;;;;4982571;28;20030;-79
2023/07/10 05:28:36;;;;;;;6.43;3.58;;;;;;;;;;4978874;28;20553;-79
2023/07/10 05:31:03;;;;;;;3.60;2.70;;;;;;;;;;4988743;28;20030;-79
2023/07/10 05:33:29;;;;;;;4.82;2.63;;;;;;;;;;4980992;28;20515;-79
2023/07/10 05:35:57;;;;;;;6.97;3.00;;;;;;;;;;4979697;28;20424;-79
2023/07/10 05:38:25;;;;;;;6.30;2.10;;;23.80;99.90;;;;;;4987583;28;20030;-75
2023/07/10 05:40:52;;;;;;;10.85;3.20;;;;;;;;;;4988283;28;20522;-76
2023/07/10 05:43:18;;;;;;;10.13;2.83;;;;;;;;;;4978852;28;20030;-89
2023/07/10 05:45:44;;;;;;;9.68;2.75;;;;;;;;;;4990824;28;20204;-89
2023/07/10 05:48:10;;;;;;;5.63;2.83;;;;;;;;;;4982950;28;20027;-90
2023/07/10 05:50:36;;;;;;;7.23;2.73;;;;;;;;;;4973260;28;20029;-89
2023/07/10 05:53:02;;;;;;;6.18;2.80;;;;;;;;;;4983462;28;20415;-90
2023/07/10 05:55:28;;;;;;;5.18;2.45;;;;;;;;;;4986983;28;20026;-89
2023/07/10 05:57:54;;;;;;;9.75;2.65;;;;;;;;;;4991169;28;20435;-89
2023/07/10 06:00:20;;;;;;;4.38;2.90;;;;;;;;;;4991160;28;20077;-90
2023/07/10 06:02:46;;;;;;;3.85;2.65;;;;;;;;;;4989715;28;20073;-90
2023/07/10 06:05:12;;;;;;;5.38;2.58;;;;;;;;;;4990302;28;20032;-89
2023/07/10 06:07:38;;;;;;;3.60;3.05;;;;;;;;;;4991155;28;20022;-90
2023/07/10 06:10:04;;;;;;;4.68;2.38;;;;;;;;;;4990000;28;20114;-89
2023/07/10 06:12:30;;;;;;;5.10;2.70;;;;;;;;;;4978815;28;20039;-90
2023/07/10 06:14:56;;;;;;;3.63;2.53;;;;;;;;;;4989113;28;20052;-89
2023/07/10 06:17:22;;;;;;;4.20;2.40;;;;;;;;;;4991083;28;20018;-89
2023/07/10 06:19:48;;;;;;;4.47;1.95;;;;;;;;;;4976801;28;20022;-90
2023/07/10 06:22:14;;;;;;;5.65;2.40;;;;;;;;;;4980064;28;20039;-87
2023/07/10 06:24:40;;;;;;;3.38;2.10;;;;;;;;;;4981088;28;20018;-84
2023/07/10 06:27:06;;;;;;;5.88;2.33;;;;;;;;;;4988725;28;20041;-84
2023/07/10 06:29:36;;;;;;;9.93;2.60;;;27.10;85.30;;;;;;4988805;28;20023;-83
2023/07/10 06:32:03;;;;;;;5.60;2.63;;;27.00;95.70;;;;;;4988168;28;20101;-83
2023/07/10 06:34:29;;;;;;;9.05;3.35;;;;;;;;;;4988094;28;20785;-84
2023/07/10 06:36:56;;;;;;;5.75;2.33;;;;;;;;;;4997878;28;20045;-84
2023/07/10 06:39:22;;;;;;;7.55;3.55;;;;;;;;;;4988722;28;20019;-84
2023/07/10 06:41:47;;;;;;;5.82;2.10;;;;;;;;;;4988290;28;20391;-84
2023/07/10 06:44:15;;;;;;;4.28;2.72;;;27.80;82.40;;;;;;4988552;28;20030;-83
2023/07/10 06:46:41;;;;;;;5.38;3.47;;;;;;;;;;4988398;28;20049;-84
2023/07/10 06:49:07;;;;;;;4.13;2.50;;;;;;;;;;4993935;28;20030;-84
2023/07/10 06:51:35;;;;;;;6.15;2.75;;;28.60;78.20;;;;;;5002172;28;20538;-83
2023/07/10 06:54:02;;;;;;;13.93;2.90;;;;;;;;;;4988511;28;20042;-83
2023/07/10 06:56:28;;;;;;;7.22;3.13;;;;;;;;;;4984511;28;20117;-81
2023/07/10 06:58:54;;;;;;;5.25;2.47;;;;;;;;;;4986192;28;20113;-86
2023/07/10 07:01:20;;;;;;;3.08;2.17;;;;;;;;;;4979132;28;20035;-86
2023/07/10 07:03:46;;;;;;;10.45;2.67;;;;;;;;;;4990919;28;20034;-86
2023/07/10 07:06:12;;;;;;;5.85;2.63;;;;;;;;;;4995289;28;20031;-86
2023/07/10 07:08:38;;;;;;;8.37;2.80;;;;;;;;;;4992020;28;20022;-85
2023/07/10 07:11:04;;;;;;;3.23;2.33;;;;;;;;;;4996379;28;20359;-86
2023/07/10 07:13:30;;;;;;;5.07;3.10;;;;;;;;;;4979682;28;20039;-86
2023/07/10 07:15:56;;;;;;;3.47;2.23;;;;;;;;;;4974547;28;20026;-87
2023/07/10 07:18:24;;;;;;;5.17;2.57;;;31.70;64.50;;;;;;4978460;28;20050;-86
2023/07/10 07:20:50;;;;;;;5.80;2.58;;;;;;;;;;4981566;28;20109;-87
2023/07/10 07:23:16;;;;;;;7.13;2.67;;;;;;;;;;4992603;28;20049;-86
2023/07/10 07:25:42;;;;;;;7.05;3.05;;;;;;;;;;4983151;28;20053;-75
2023/07/10 07:28:08;;;;;;;6.32;2.63;;;25.80;63.50;;;;;;4984786;28;20027;-76
2023/07/10 07:30:35;;;;;;;3.28;2.35;;;;;;;;;;4984848;28;20019;-76
2023/07/10 07:33:00;;;;;;;2.58;2.17;;;30.10;78.00;;;;;;4983533;28;20050;-76
2023/07/10 07:35:26;;;;;;;3.53;2.30;;;;;;;;;;4978416;28;20047;-77
2023/07/10 07:37:53;;;;;;;6.53;2.63;;;;;;;;;;4983368;28;20505;-75
2023/07/10 07:40:18;;;;;;;3.15;2.05;;;31.10;73.70;;;;;;4984424;28;20257;-76
2023/07/10 07:42:46;;;;;;;6.20;2.30;;;31.90;76.60;;;;;;4988208;28;20026;-76
2023/07/10 07:45:12;;;;;;;9.70;2.38;;;32.50;68.80;;;;;;4981895;28;20030;-75
2023/07/10 07:47:40;;;;;;;4.25;2.95;;;;;;;;;;4986028;28;20022;-75
2023/07/10 07:50:09;;;;;;;4.03;2.20;;;33.20;57.90;;;;;;4985617;28;20022;-76
2023/07/10 07:52:35;;;;;;;5.35;2.20;;;;;;;;;;4988473;28;20472;-75
2023/07/10 07:55:02;;;;;;;2.73;2.00;;;33.00;57.60;;;;;;4977398;28;20065;-75
2023/07/10 07:57:28;;;;;;;5.13;2.03;;;33.00;62.90;;;;;;4986583;28;20624;-76
2023/07/10 07:59:54;;;;;;;5.70;2.47;;;;;;;;;;4980090;28;20030;-77
2023/07/10 08:02:20;;;;;;;3.20;2.13;;;;;;;;;;4989933;28;20022;-76
2023/07/10 08:04:46;;;;;;;2.80;1.70;;;;;;;;;;4987864;28;20274;-76
2023/07/10 08:07:12;;;;;;;9.07;3.23;;;;;;;;;;4975333;28;20034;-76
2023/07/10 08:09:38;;;;;;;6.00;2.30;;;;;;;;;;4989859;28;20831;-76
2023/07/10 08:12:04;;;;;;;4.80;2.03;;;;;;;;;;4992063;28;20281;-76
2023/07/10 08:14:30;;;;;;;5.68;1.92;;;32.00;66.60;;;;;;5002566;28;20258;-75
2023/07/10 08:16:56;;;;;;;2.73;1.70;;;;;;;;;;4984976;28;20121;-77
2023/07/10 08:19:21;;;;;;;5.13;2.53;;;31.50;73.60;;;;;;4977450;28;20054;-76
2023/07/10 08:21:47;;;;;;;4.80;2.77;;;31.40;69.50;;;;;;4982890;28;20030;-77
2023/07/10 08:24:14;;;;;;;4.20;2.17;;;;;;;;;;4976468;28;20523;-76
2023/07/10 08:26:39;;;;;;;5.93;2.38;;;30.80;70.90;;;;;;4986435;28;20088;-76
2023/07/10 08:29:26;;;;;;;4.97;2.40;;;30.50;63.50;;;;;;4982459;28;20113;-76
2023/07/10 08:32:00;;;;;;;4.82;2.45;;;30.40;60.50;;;;;;4984430;28;20035;-76
2023/07/10 08:34:27;;;;;;;4.18;2.17;;;30.60;60.70;;;;;;4978656;28;20050;-76
2023/07/10 08:36:54;;;;;;;6.25;2.63;;;30.80;60.10;;;;;;4982164;28;20411;-76
2023/07/10 08:39:22;;;;;;;3.60;1.95;;;30.80;59.80;;;;;;4984841;28;20033;-76
2023/07/10 08:42:11;;;;;;;9.63;2.75;;;;;;;;;;4983102;28;20395;-76
2023/07/10 08:44:38;;;;;;;3.70;1.90;;;;;;;;;;4985798;28;20026;-84
2023/07/10 08:47:18;;;;;;;3.67;2.38;;;31.10;59.50;;;;;;4985083;28;20050;-84
2023/07/10 08:49:53;;;;;;;6.50;2.40;;;;;;;;;;4988523;28;20080;-84
2023/07/10 08:52:25;;;;;;;8.35;2.55;;;;;;;;;;4987539;28;20038;-84
2023/07/10 08:54:51;;;;;;;5.55;2.20;;;31.60;58.10;;;;;;4974206;28;20042;-84
2023/07/10 08:57:17;;;;;;;5.70;2.20;;;;;;;;;;4982345;28;20068;-85
2023/07/10 08:59:56;;;;;;;5.07;2.30;;;32.80;56.60;;;;;;4981359;28;20088;-83
2023/07/10 09:02:22;;;;;;;5.90;2.90;;;;;;;;;;4986244;28;20384;-84
2023/07/10 09:04:50;;;;;;;5.67;2.30;;;33.80;54.40;;;;;;4982993;28;20122;-84
2023/07/10 09:07:16;;;;;;;4.28;2.15;;;;;;;;;;4981184;28;20038;-84
2023/07/10 09:09:45;;;;;;;4.65;2.55;;;;;;;;;;4989350;28;20080;-84
2023/07/10 09:12:18;;;;;;;4.30;1.98;;;;;;;;;;4988885;28;20038;-85
2023/07/10 09:14:58;;;;;;;5.00;2.30;;;34.80;52.30;;;;;;4987685;28;20068;-84
2023/07/10 09:17:59;;;;;;;4.63;2.00;;;35.20;51.10;;;;;;4994535;28;20022;-84
2023/07/10 09:20:25;;;;;;;2.97;2.22;;;;;;;;;;4989140;28;20117;-84
2023/07/10 09:22:56;;;;;;;3.88;2.88;;;;;;;;;;4985582;28;20511;-86
2023/07/10 09:25:23;;;;;;;6.65;2.90;;;;;;;;;;4988377;28;20026;-83
2023/07/10 09:27:49;;;;;;;8.80;2.20;;;;;;;;;;4996509;28;20029;-85
2023/07/10 09:31:12;;;;;;;4.05;2.03;;;35.60;46.90;;;;;;4989121;28;20093;-85
2023/07/10 09:33:49;;;;;;;4.47;2.17;;;;;;;;;;4985816;28;20038;-84
2023/07/10 09:36:17;;;;;;;7.57;2.17;;;;;;;;;;4985922;28;20080;-85
2023/07/10 09:38:47;;;;;;;6.30;2.05;;;;;;;;;;4986612;28;20484;-85
2023/07/10 09:41:24;;;;;;;4.43;2.38;;;39.10;44.50;;;;;;4985760;28;20122;-84
2023/07/10 09:43:57;;;;;;;5.45;2.58;;;;;;;;;;4983027;28;20041;-84
2023/07/10 09:46:24;;;;;;;3.22;1.92;;;;;;;;;;4983220;28;20069;-82
2023/07/10 09:48:52;;;;;;;2.67;1.30;;;;;;;;;;4986409;28;20026;-82
2023/07/10 09:51:19;;;;;;;3.13;1.52;;;;;;;;;;4986262;28;20570;-82
2023/07/10 09:53:49;;;;;;;3.65;2.35;;;;;;;;;;4984883;28;20678;-82
2023/07/10 09:56:35;;;;;;;2.63;1.77;;;;;;;;;;4977018;28;20030;-82
2023/07/10 09:59:02;;;;;;;2.42;1.58;;;;;;;;;;4981702;28;20042;-82
2023/07/10 10:01:30;;;;;;;4.80;1.90;;;;;;;;;;4985822;28;20060;-81
2023/07/10 10:03:56;;;;;;;2.50;1.50;;;;;;;;;;4986416;28;20050;-82
2023/07/10 10:06:28;;;;;;;2.30;1.70;;;52.10;30.10;;;;;;4988715;28;20030;-81
2023/07/10 10:08:55;;;;;;;4.10;1.73;;;;;;;;;;4976489;28;20130;-82
2023/07/10 10:11:37;;;;;;;4.18;2.33;;;47.40;32.10;;;;;;4987617;28;20023;-82
2023/07/10 10:14:09;;;;;;;3.55;2.28;;;45.20;33.50;;;;;;4983177;28;20034;-82
2023/07/10 10:16:40;;;;;;;4.82;1.88;;;;;;;;;;4986556;28;20081;-83
2023/07/10 10:19:12;;;;;;;3.30;2.03;;;;;;;;;;4984029;28;20123;-82
2023/07/10 10:21:39;;;;;;;3.47;1.70;;;;;;;;;;4983697;28;20025;-82
2023/07/10 10:24:08;;;;;;;5.78;1.88;;;;;;;;;;4982643;28;20459;-82
2023/07/10 10:26:51;;;;;;;2.25;1.73;;;;;;;;;;4986807;28;20391;-82
2023/07/10 10:29:25;;;;;;;2.60;1.75;;;;;;;;;;4977411;28;20719;-81
2023/07/10 10:31:51;;;;;;;2.55;1.77;;;;;;;;;;4981066;28;20053;-82
2023/07/10 10:35:01;;;;;;;4.68;2.20;;;48.80;31.10;;;;;;4981281;28;20046;-81
2023/07/10 10:37:58;;;;;;;6.00;1.95;;;45.50;32.30;;;;;;4983190;28;20459;-81
2023/07/10 10:40:28;;;;;;;4.53;2.00;;;45.00;33.10;;;;;;4995825;28;20496;-82
2023/07/10 10:43:09;;;;;;;5.38;2.35;;;48.10;31.30;;;;;;4978531;28;20104;-79
2023/07/10 10:45:43;;;;;;;7.53;2.65;;;47.80;30.20;;;;;;4977901;28;20034;-81
2023/07/10 10:48:39;;;;;;;6.50;2.05;;;46.30;31.00;;;;;;4985494;28;20030;-79
2023/07/10 10:51:05;;;;;;;5.13;2.05;;;;;;;;;;4981120;28;20396;-79
2023/07/10 10:53:31;;;;;;;3.08;2.33;;;;;;;;;;4984047;28;20045;-81
2023/07/10 10:56:05;;;;;;;;;;;44.30;33.70;;;;;;4983492;28;20041;-81
2023/07/10 10:58:31;;;;;;;2.93;2.23;;;;;;;;;;4982968;28;20448;-81
2023/07/10 11:01:12;;;;;;;;;;;42.50;34.70;;;;;;4986579;28;20034;-81
2023/07/10 11:03:44;;;;;;;3.55;2.13;;;;;;;;;;4986041;28;20409;-80
2023/07/10 11:06:16;;;;;;;3.13;2.13;;;;;;;;;;4992760;28;20065;-80
2023/07/10 11:08:46;;;;;;;3.95;2.00;;;;;;;;;;4990215;28;20291;-81
2023/07/10 11:11:28;;;;;;;4.93;2.13;;;41.90;35.00;;;;;;4990879;28;20030;-80
2023/07/10 11:13:54;;;;;;;5.85;2.35;;;;;;;;;;4986746;28;20101;-80
2023/07/10 11:16:20;;;;;;;6.38;2.22;;;;;;;;;;4983498;28;20037;-82
2023/07/10 11:18:46;;;;;;;3.45;2.40;;;;;;;;;;4976866;28;20114;-81
2023/07/10 11:21:13;;;;;;;5.82;2.42;;;;;;;;;;4987299;28;20039;-82
2023/07/10 11:23:41;;;;;;;;;;;44.50;33.50;;;;;;4991711;28;20030;-81
2023/07/10 11:26:15;;;;;;;5.78;1.98;;;44.80;32.80;;;;;;4988565;28;19910;-81
2023/07/10 11:28:50;;;;;;;3.25;1.92;;;;;;;;;;4981948;28;20487;-80
2023/07/10 11:31:30;;;;;;;3.30;2.43;;;50.90;29.20;;;;;;4987421;28;20038;-80
2023/07/10 11:34:05;;;;;;;3.72;2.20;;;53.10;27.90;;;;;;4983697;28;20681;-81
2023/07/10 11:36:34;;;;;;;2.75;2.13;;;;;;;;;;4996495;28;20037;-80
2023/07/10 11:39:06;;;;;;;2.53;2.00;;;54.30;27.20;;;;;;4980022;28;20506;-81
2023/07/10 11:41:38;;;;;;;4.38;1.63;;;54.40;26.60;;;;;;4986376;28;20378;-81
2023/07/10 11:44:15;;;;;;;3.42;2.10;;;55.10;32.20;;;;;;4980044;28;20581;-81
2023/07/10 11:47:05;;;;;;;2.28;1.70;;;54.90;26.20;;;;;;4986082;28;20026;-80
2023/07/10 11:49:45;;;;;;;5.88;1.55;;;55.00;26.20;;;;;;4978066;28;20034;-80
2023/07/10 11:52:25;;;;;;;4.97;1.83;;;54.30;25.90;;;;;;4997193;28;20116;-80
2023/07/10 11:54:52;;;;;;;3.72;2.20;;;;;;;;;;4983751;28;20050;-82
2023/07/10 11:57:26;;;;;;;3.38;2.17;;;53.90;28.60;;;;;;4990326;28;20038;-81
2023/07/10 11:59:53;;;;;;;3.60;2.43;;;53.30;26.30;;;;;;4985477;28;20076;-80
2023/07/10 12:02:27;;;;;;;4.28;2.38;;;52.50;28.60;;;;;;4988749;28;20273;-80
2023/07/10 12:04:53;;;;;;;4.63;2.10;;;;;;;;;;4988980;28;20101;-80
2023/07/10 12:07:19;;;;;;;5.45;3.35;;;;;;;;;;4989148;28;20458;-80
2023/07/10 12:09:50;;;;;;;7.28;2.33;;;49.90;28.50;;;;;;4990409;28;20022;-79
2023/07/10 12:12:16;;;;;;;3.70;2.60;;;;;;;;;;4998715;28;20136;-79
2023/07/10 12:14:42;;;;;;;3.35;2.30;;;;;;;;;;4993682;28;20105;-80
2023/07/10 12:17:13;;;;;;;;;;;45.90;30.40;;;;;;4990788;28;20038;-80
2023/07/10 12:19:41;;;;;;;4.65;2.28;;;;;;;;;;5018873;28;20346;-81
2023/07/10 12:22:17;;;;;;;4.82;2.20;;;43.50;32.10;;;;;;4989596;28;20026;-81
2023/07/10 12:24:55;;;;;;;7.03;2.70;;;41.80;33.00;;;;;;4990034;28;20026;-80
2023/07/10 12:27:22;;;;;;;4.90;2.17;;;40.80;34.60;;;;;;4990223;28;20060;-81
2023/07/10 12:29:55;;;;;;;4.88;2.65;;;40.20;35.80;;;;;;4987627;28;20081;-80
2023/07/10 12:32:23;;;;;;;4.70;2.53;;;39.40;37.00;;;;;;4990159;28;20066;-83
2023/07/10 12:34:49;;;;;;;7.13;2.60;;;;;;;;;;4990239;28;20046;-82
2023/07/10 12:37:16;;;;;;;5.80;2.38;;;38.10;38.70;;;;;;4989282;28;20125;-81
2023/07/10 12:39:48;;;;;;;7.40;2.60;;;37.50;39.20;;;;;;4990054;28;20488;-82
2023/07/10 12:42:37;;;;;;;4.38;2.60;;;36.90;54.10;;;;;;4988252;28;20471;-81
2023/07/10 12:45:14;;;;;;;4.28;2.67;;;36.70;51.50;;;;;;4990069;28;20030;-82
2023/07/10 12:47:40;;;;;;;6.22;2.50;;;;;;;;;;4989924;28;20109;-82
2023/07/10 12:50:07;;;;;;;4.28;2.50;;;;;;;;;;4990371;28;20038;-83
2023/07/10 12:52:37;;;;;;;4.68;2.33;;;36.50;42.50;;;;;;4989289;28;20069;-83
2023/07/10 12:55:06;;;;;;;3.58;2.60;;;36.30;42.90;;;;;;4989476;28;20029;-82
2023/07/10 12:57:35;;;;;;;6.43;2.88;;;36.20;43.40;;;;;;4990480;28;20587;-82
2023/07/10 13:00:07;;;;;;;3.78;2.80;;;36.10;43.70;;;;;;4989249;28;20541;-82
2023/07/10 13:02:39;;;;;;;7.78;3.75;;;36.20;44.10;;;;;;4990211;28;20030;-82
2023/07/10 13:05:17;;;;;;;5.00;2.88;;;35.90;43.90;;;;;;4989754;28;20054;-83
2023/07/10 13:07:43;;;;;;;3.28;2.25;;;;;;;;;;4988986;28;20022;-76
2023/07/10 13:10:26;;;;;;;7.80;3.00;;;35.90;48.60;;;;;;4988629;28;20088;-76
2023/07/10 13:12:54;;;;;;;4.53;2.95;;;35.50;45.30;;;;;;4986802;28;20849;-76
2023/07/10 13:15:22;;;;;;;3.92;2.30;;;35.40;45.40;;;;;;4987863;28;20022;-78
2023/07/10 13:17:50;;;;;;;6.00;2.42;;;;;;;;;;4988603;28;20093;-78
2023/07/10 13:20:25;;;;;;;4.70;3.22;;;35.10;46.10;;;;;;4988969;28;20081;-79
2023/07/10 13:22:51;;;;;;;6.53;3.35;;;;;;;;;;4989211;28;20081;-80
2023/07/10 13:25:17;;;;;;;4.25;2.35;;;;;;;;;;4989067;28;20030;-82
2023/07/10 13:27:44;;;;;;;4.20;2.72;;;;;;;;;;4989858;28;20487;-81
2023/07/10 13:30:21;;;;;;;5.13;2.97;;;34.70;46.90;;;;;;4989576;28;20029;-83
2023/07/10 13:32:47;;;;;;;3.53;2.38;;;;;;;;;;4988518;28;20529;-82
2023/07/10 13:35:13;;;;;;;4.13;2.97;;;;;;;;;;4988590;28;20046;-81
2023/07/10 13:37:39;;;;;;;7.97;2.90;;;;;;;;;;4988930;28;20036;-82
2023/07/10 13:40:06;;;;;;;5.88;2.63;;;;;;;;;;4989294;28;20025;-81
2023/07/10 13:42:32;;;;;;;7.45;2.55;;;;;;;;;;4987548;28;20110;-82
2023/07/10 13:44:58;;;;;;;11.70;2.60;;;;;;;;;;4987573;28;20114;-82
2023/07/10 13:47:24;;;;;;;11.80;2.83;;;;;;;;;;4989459;28;20479;-80
2023/07/10 13:49:50;;;;;;;3.80;2.70;;;;;;;;;;4988516;28;20581;-81
2023/07/10 13:52:22;;;;;;;4.45;2.63;;;34.20;48.70;;;;;;4988051;28;20080;-80
2023/07/10 13:54:49;;;;;;;3.78;2.72;;;34.20;49.00;;;;;;4988865;28;20126;-81
2023/07/10 13:57:27;;;;;;;3.80;2.78;;;34.20;49.40;;;;;;4988137;28;20450;-81
2023/07/10 13:59:54;;;;;;;7.15;3.15;;;34.00;49.50;;;;;;4981635;28;20038;-79
2023/07/10 14:02:38;;;;;;;5.20;3.03;;;34.10;49.50;;;;;;4974513;28;20032;-81
2023/07/10 14:05:12;;;;;;;5.38;2.78;;;33.90;49.40;;;;;;4985320;28;20034;-80
2023/07/10 14:07:39;;;;;;;9.13;2.65;;;;;;;;;;4970926;28;20023;-79
2023/07/10 14:10:05;;;;;;;4.88;2.60;;;;;;;;;;4988433;28;20034;-81